Terminal Aerodrome Forecast
Issued by NWS

Home | Current Version | Previous Version | Graphics & Text | Print | Product List | Glossary On
Versions: 1 2 3 4 5 6 7 8 9 10 11 12 13 14 15
000
FTUS43 KTOP 271100
TAFMHK
TAF
KMHK 271128Z 2712/2812 31009KT P6SM BKN015
     FM271300 32008KT P6SM BKN028
      TEMPO 2715/2718 SCT030
     FM271800 33008KT P6SM BKN040
     FM272300 31002KT P6SM FEW200=

USA.gov is the U.S. government's official web portal to all federal, state and local government web resources and services.